Time;durP1;ratioP1;P1;durP2;ratioP2;P2;SDS_P1;SDS_P2;PMS_P1;PMS_P2;Temp;Humidity;BMP_temperature;BMP_pressure;BME280_temperature;BME280_humidity;BME280_pressure;Samples;Min_cycle;Max_cycle;Signal;HPM_P1;HPM_P2
2022/11/08 00:01:45;;;;;;;1999.90;999.90;;;;;;;6.07;100.00;94583.72;5014472;28;20264;-61
2022/11/08 00:04:13;;;;;;;1999.90;999.90;;;;;;;6.07;100.00;94578.28;5013805;28;20286;-60
2022/11/08 00:14:53;;;;;;;1999.90;999.90;;;;;;;5.96;100.00;94575.63;5017719;28;20208;-59
2022/11/08 00:17:20;;;;;;;1999.90;999.90;;;;;;;5.95;100.00;94570.59;5016389;28;20221;-59
2022/11/08 00:19:45;;;;;;;1999.90;999.90;;;;;;;5.94;100.00;94569.06;5016276;28;20232;-59
2022/11/08 00:22:12;;;;;;;1999.90;999.90;;;;;;;5.90;100.00;94563.66;5016877;28;20171;-59
2022/11/08 00:24:38;;;;;;;1999.90;999.90;;;;;;;5.91;100.00;94564.44;5016177;28;20173;-59
2022/11/08 00:27:06;;;;;;;1999.90;999.90;;;;;;;5.90;100.00;94554.78;5016383;28;20258;-59
2022/11/08 00:29:34;;;;;;;1999.90;999.90;;;;;;;5.85;100.00;94555.16;5015986;28;20175;-59
2022/11/08 00:32:00;;;;;;;1999.90;999.90;;;;;;;5.79;100.00;94546.63;5016634;28;20169;-60
2022/11/08 00:34:25;;;;;;;1999.90;999.90;;;;;;;5.79;100.00;94540.47;5016663;28;20234;-62
2022/11/08 00:36:54;;;;;;;1999.90;999.90;;;;;;;5.82;100.00;94528.84;5016300;28;20171;-62
2022/11/08 00:39:20;;;;;;;1999.90;999.90;;;;;;;5.79;100.00;94532.34;5015833;28;20295;-62
2022/11/08 00:41:45;;;;;;;1999.90;999.90;;;;;;;5.75;100.00;94528.84;5016031;28;20243;-61
2022/11/08 00:44:11;;;;;;;1999.90;999.90;;;;;;;5.68;100.00;94515.38;5015440;28;20177;-62
2022/11/08 00:46:37;;;;;;;1999.90;999.90;;;;;;;5.68;100.00;94507.25;5016325;28;20260;-64
2022/11/08 00:49:06;;;;;;;1999.90;999.90;;;;;;;5.67;100.00;94492.91;5015881;28;20199;-63
2022/11/08 00:51:31;;;;;;;1999.90;999.90;;;;;;;5.68;100.00;94485.56;5016698;28;20234;-59
2022/11/08 00:53:57;;;;;;;1999.90;999.90;;;;;;;5.71;100.00;94476.63;5015735;28;20184;-59
2022/11/08 00:56:23;;;;;;;1999.90;999.90;;;;;;;5.69;100.00;94473.56;5015687;28;20267;-62
2022/11/08 00:58:48;;;;;;;1999.90;999.90;;;;;;;5.67;100.00;94456.94;5015656;28;20271;-62
2022/11/08 01:01:17;;;;;;;1999.90;999.90;;;;;;;5.67;100.00;94456.94;5015852;28;20169;-63
2022/11/08 01:03:44;;;;;;;1999.90;999.90;;;;;;;5.67;100.00;94446.09;5015963;28;20195;-61
2022/11/08 01:06:10;;;;;;;1999.90;999.90;;;;;;;5.70;100.00;94435.25;5015234;28;20179;-61
2022/11/08 01:08:36;;;;;;;1999.90;999.90;;;;;;;5.70;100.00;94439.91;5015431;28;20182;-60
2022/11/08 01:11:05;;;;;;;1999.90;999.90;;;;;;;5.69;100.00;94425.56;5015476;28;20176;-60
2022/11/08 01:13:31;;;;;;;1999.90;999.90;;;;;;;5.69;100.00;94424.81;5015429;28;20183;-62
2022/11/08 01:15:56;;;;;;;1999.90;999.90;;;;;;;5.73;100.00;94417.44;5015539;28;20187;-62
2022/11/08 01:18:21;;;;;;;1999.90;999.90;;;;;;;5.75;100.00;94401.56;5015299;28;20230;-65
2022/11/08 01:20:48;;;;;;;1999.90;999.90;;;;;;;5.79;100.00;94403.09;5015023;28;20232;-64
2022/11/08 01:23:14;;;;;;;1999.90;999.90;;;;;;;5.79;100.00;94399.63;5015829;28;20180;-64
2022/11/08 01:25:42;;;;;;;1999.90;999.90;;;;;;;5.74;100.00;94403.50;5015010;28;20180;-62
2022/11/08 01:28:08;;;;;;;1999.90;999.90;;;;;;;5.74;100.00;94402.72;5015431;28;20200;-59
2022/11/08 01:30:41;;;;;;;1999.90;999.90;;;;;;;5.74;100.00;94400.03;5014833;28;20184;-61
2022/11/08 01:33:07;;;;;;;1999.90;999.90;;;;;;;5.72;100.00;94405.84;5014739;28;20188;-63
2022/11/08 01:35:34;;;;;;;1999.90;999.90;;;;;;;5.65;100.00;94416.72;5015008;28;20230;-62
2022/11/08 01:38:00;;;;;;;1999.90;999.90;;;;;;;5.65;100.00;94410.53;5015528;28;20180;-62
2022/11/08 01:40:27;;;;;;;1999.90;999.90;;;;;;;5.64;100.00;94409.75;5014625;28;20255;-63
2022/11/08 01:42:53;;;;;;;1999.90;999.90;;;;;;;5.62;100.00;94408.63;5015346;28;20275;-65
2022/11/08 01:46:00;;;;;;;1999.90;999.90;;;;;;;5.63;100.00;94410.94;5014532;28;20207;-62
2022/11/08 01:48:26;;;;;;;1999.90;999.90;;;;;;;5.63;100.00;94418.28;4994845;28;20202;-60
2022/11/08 01:50:55;;;;;;;1999.90;999.90;;;;;;;5.59;100.00;94420.22;5014656;28;20191;-59
2022/11/08 01:53:21;;;;;;;1999.90;999.90;;;;;;;5.57;100.00;94420.63;5014829;28;20183;-59
2022/11/08 01:55:47;;;;;;;1999.90;999.90;;;;;;;5.52;100.00;94423.75;5015392;28;20182;-59
2022/11/08 01:58:23;;;;;;;1999.90;999.90;;;;;;;5.48;100.00;94422.22;5014239;28;20177;-60
2022/11/08 02:00:50;;;;;;;1999.90;999.90;;;;;;;5.46;100.00;94424.56;5014152;28;20211;-61
2022/11/08 02:03:17;;;;;;;1999.90;999.90;;;;;;;5.42;100.00;94423.78;5014489;28;20225;-62
2022/11/08 02:05:43;;;;;;;1999.90;999.90;;;;;;;5.41;100.00;94416.84;5015001;28;20180;-64
2022/11/08 02:08:18;;;;;;;1999.90;999.90;;;;;;;5.40;100.00;94420.72;5014425;28;20179;-60
2022/11/08 02:10:49;;;;;;;1999.90;999.90;;;;;;;5.35;100.00;94423.84;5015064;28;20179;-63
2022/11/08 02:13:18;;;;;;;1999.90;999.90;;;;;;;5.31;100.00;94428.47;5014717;28;20175;-64
2022/11/08 02:15:44;;;;;;;1999.90;999.90;;;;;;;5.24;100.00;94417.72;5014125;28;20176;-63
2022/11/08 02:18:12;;;;;;;1999.90;999.90;;;;;;;5.22;100.00;94415.38;5014239;28;20179;-63
2022/11/08 02:20:42;;;;;;;1999.90;999.90;;;;;;;5.18;100.00;94413.84;5013888;28;20242;-63
2022/11/08 02:23:16;;;;;;;1999.90;999.90;;;;;;;5.15;100.00;94409.22;5014693;28;20163;-64
2022/11/08 02:25:41;;;;;;;1999.90;999.90;;;;;;;5.11;100.00;94403.06;5014747;28;20190;-64
2022/11/08 02:28:07;;;;;;;1999.90;999.90;;;;;;;5.09;100.00;94397.25;5013504;28;20186;-58
2022/11/08 02:30:37;;;;;;;1999.90;999.90;;;;;;;5.09;100.00;94391.84;5014242;28;20179;-61
2022/11/08 02:33:20;;;;;;;1999.90;999.90;;;;;;;5.08;100.00;94396.50;5014051;28;20179;-61
2022/11/08 02:35:53;;;;;;;1999.90;999.90;;;;;;;5.04;100.00;94386.84;5014695;28;20255;-60
2022/11/08 02:38:18;;;;;;;1999.90;999.90;;;;;;;4.99;100.00;94389.97;5014061;28;20274;-60
2022/11/08 02:40:55;;;;;;;1999.90;999.90;;;;;;;4.96;100.00;94379.94;5014385;28;20298;-60
2022/11/08 02:43:22;;;;;;;1999.90;999.90;;;;;;;4.94;100.00;94376.84;5014261;28;20183;-66
2022/11/08 02:45:48;;;;;;;1999.90;999.90;;;;;;;4.94;100.00;94379.53;5013793;28;20540;-61
2022/11/08 02:48:13;;;;;;;1999.90;999.90;;;;;;;4.91;100.00;94372.19;5014349;28;20190;-61
2022/11/08 02:50:39;;;;;;;1999.90;999.90;;;;;;;4.90;100.00;94376.06;5014681;28;20183;-61
2022/11/08 02:53:05;;;;;;;1999.90;999.90;;;;;;;4.90;100.00;94365.25;5014179;28;20217;-61
2022/11/08 02:55:33;;;;;;;1999.90;999.90;;;;;;;4.88;100.00;94362.19;5013915;28;20199;-61
2022/11/08 02:57:58;;;;;;;1999.90;999.90;;;;;;;4.89;100.00;94363.72;5014223;28;20186;-61
2022/11/08 03:00:24;;;;;;;1999.90;999.90;;;;;;;4.86;100.00;94349.06;5014406;28;20206;-63
2022/11/08 03:02:53;;;;;;;1999.90;999.90;;;;;;;4.81;100.00;94359.50;5014617;28;20176;-64
2022/11/08 03:05:19;;;;;;;1999.90;999.90;;;;;;;4.76;100.00;94357.19;5013658;28;20203;-62
2022/11/08 03:07:45;;;;;;;1999.90;999.90;;;;;;;4.72;100.00;94364.53;5014336;28;20175;-62
2022/11/08 03:10:11;;;;;;;1999.90;999.90;;;;;;;4.67;100.00;94367.66;5013930;28;20183;-62
2022/11/08 03:12:37;;;;;;;1999.90;999.90;;;;;;;4.66;100.00;94368.81;5013302;28;20183;-62
2022/11/08 03:15:05;;;;;;;1999.90;999.90;;;;;;;4.66;100.00;94363.41;5013724;28;20182;-60
2022/11/08 03:17:30;;;;;;;1999.90;999.90;;;;;;;4.64;100.00;94357.63;5013448;28;20183;-60
2022/11/08 03:19:56;;;;;;;1999.90;999.90;;;;;;;4.62;100.00;94370.78;5013781;28;20238;-58
2022/11/08 03:22:22;;;;;;;1999.90;999.90;;;;;;;4.60;100.00;94362.25;5013298;28;20203;-64
2022/11/08 03:24:47;;;;;;;1999.90;999.90;;;;;;;4.56;100.00;94356.88;5013556;28;20233;-65
2022/11/08 03:27:14;;;;;;;1999.90;999.90;;;;;;;4.51;100.00;94370.03;5013362;28;20168;-65
2022/11/08 03:29:42;;;;;;;1999.90;999.90;;;;;;;4.53;100.00;94356.88;5013126;28;20171;-65
2022/11/08 03:32:07;;;;;;;1999.90;999.90;;;;;;;4.57;100.00;94358.41;5013452;28;20221;-64
2022/11/08 03:34:32;;;;;;;1999.90;999.90;;;;;;;4.58;100.00;94351.06;5013345;28;20176;-65
2022/11/08 03:36:58;;;;;;;1999.90;999.90;;;;;;;4.60;100.00;94346.03;5013311;28;20263;-60
2022/11/08 03:39:23;;;;;;;1999.90;999.90;;;;;;;4.59;100.00;94355.31;5015021;28;20286;-60
2022/11/08 03:41:48;;;;;;;1999.90;999.90;;;;;;;4.54;100.00;94351.09;5017263;28;20179;-64
2022/11/08 03:44:14;;;;;;;1999.90;999.90;;;;;;;4.51;100.00;94349.16;5016706;28;20232;-65
2022/11/08 03:46:39;;;;;;;1999.90;999.90;;;;;;;4.47;100.00;94344.91;5017522;28;20305;-64
2022/11/08 03:49:04;;;;;;;1999.90;999.90;;;;;;;4.48;100.00;94344.53;5017196;28;20210;-62
2022/11/08 03:51:30;;;;;;;1999.90;999.90;;;;;;;4.44;100.00;94345.72;5017781;28;20202;-62
2022/11/08 03:53:55;;;;;;;1999.90;999.90;;;;;;;4.40;100.00;94336.84;5016686;28;20175;-63
2022/11/08 03:56:20;;;;;;;1999.90;999.90;;;;;;;4.35;100.00;94335.31;5016850;28;20225;-64
2022/11/08 03:58:46;;;;;;;1999.90;999.90;;;;;;;4.31;100.00;94341.88;5016858;28;20254;-58
2022/11/08 04:01:11;;;;;;;1999.90;999.90;;;;;;;4.26;100.00;94347.69;5016947;28;20257;-58
2022/11/08 04:03:36;;;;;;;1999.90;999.90;;;;;;;4.22;100.00;94341.50;5016646;28;20198;-58
2022/11/08 04:06:02;;;;;;;1999.90;999.90;;;;;;;4.22;100.00;94346.91;5016608;28;20283;-59
2022/11/08 04:08:28;;;;;;;1999.90;999.90;;;;;;;4.22;100.00;94346.91;5017186;28;20230;-58
2022/11/08 04:10:55;;;;;;;1999.90;999.90;;;;;;;4.22;100.00;94346.91;5016218;28;20641;-58
2022/11/08 04:16:05;;;;;;;1999.90;999.90;;;;;;;4.22;100.00;94346.91;5017756;28;20221;-59
2022/11/08 04:21:20;;;;;;;1999.90;999.90;;;;;;;4.22;100.00;94346.91;5035430;28;20303;-58
2022/11/08 04:23:47;;;;;;;1999.90;999.90;;;;;;;4.22;100.00;94346.91;5020256;28;20204;-58
2022/11/08 04:26:13;;;;;;;1999.90;999.90;;;;;;;4.22;100.00;94346.91;5019332;28;20175;-58
2022/11/08 04:28:40;;;;;;;1999.90;999.90;;;;;;;4.22;100.00;94346.91;5036777;28;20171;-58
2022/11/08 04:31:09;;;;;;;1999.90;999.90;;;;;;;4.22;100.00;94346.91;5019860;28;20178;-58
2022/11/08 04:33:35;;;;;;;1999.90;999.90;;;;;;;4.22;100.00;94346.91;5020031;28;20273;-59
2022/11/08 04:36:02;;;;;;;1999.90;999.90;;;;;;;4.22;100.00;94346.91;5020056;28;20263;-59
2022/11/08 04:38:29;;;;;;;1999.90;999.90;;;;;;;4.22;100.00;94346.91;5019285;28;20191;-58
2022/11/08 04:41:16;;;;;;;1999.90;999.90;;;;;;;4.22;100.00;94346.91;5018919;28;20210;-59
2022/11/08 04:43:42;;;;;;;1999.90;999.90;;;;;;;4.22;100.00;94346.91;5019899;28;20182;-59
2022/11/08 04:46:16;;;;;;;1999.90;999.90;;;;;;;4.22;100.00;94346.91;5019291;28;20269;-58
2022/11/08 04:48:43;;;;;;;1999.90;999.90;;;;;;;4.22;100.00;94346.91;5019715;28;20194;-58
2022/11/08 04:51:14;;;;;;;1999.90;999.90;;;;;;;4.22;100.00;94346.91;5018455;28;20179;-58
2022/11/08 04:53:40;;;;;;;1999.90;999.90;;;;;;;4.22;100.00;94346.91;5019648;28;20174;-61
2022/11/08 04:56:08;;;;;;;1999.90;999.90;;;;;;;4.22;100.00;94346.91;5019097;28;20170;-61
2022/11/08 04:58:39;;;;;;;1999.90;999.90;;;;;;;4.22;100.00;94346.91;5019504;28;20248;-60
2022/11/08 05:01:06;;;;;;;1999.90;999.90;;;;;;;4.22;100.00;94346.91;5019470;28;20222;-60
2022/11/08 05:03:32;;;;;;;1999.90;999.90;;;;;;;4.22;100.00;94346.91;5018776;28;20178;-60
2022/11/08 05:06:02;;;;;;;1999.90;999.90;;;;;;;4.22;100.00;94346.91;5018888;28;20174;-61
2022/11/08 05:08:28;;;;;;;1999.90;999.90;;;;;;;4.22;100.00;94346.91;5018586;28;20174;-60
2022/11/08 05:11:03;;;;;;;1999.90;999.90;;;;;;;4.22;100.00;94346.91;5018481;28;20236;-59
2022/11/08 05:13:29;;;;;;;1999.90;999.90;;;;;;;4.22;100.00;94346.91;5019414;28;20266;-64
2022/11/08 05:15:59;;;;;;;1999.90;999.90;;;;;;;4.22;100.00;94346.91;5019212;28;20254;-64
2022/11/08 05:18:25;;;;;;;1999.90;999.90;;;;;;;4.22;100.00;94346.91;5019176;28;20171;-64
2022/11/08 05:23:41;;;;;;;1999.90;999.90;;;;;;;4.22;100.00;94346.91;5025152;28;20191;-64
2022/11/08 05:26:06;;;;;;;1999.90;999.90;;;;;;;4.22;100.00;94346.91;5018468;28;20179;-64
2022/11/08 05:28:32;;;;;;;1999.90;999.90;;;;;;;4.22;100.00;94346.91;5018658;28;20181;-60
2022/11/08 05:30:57;;;;;;;1999.90;999.90;;;;;;;4.22;100.00;94346.91;5018248;28;20190;-63
2022/11/08 05:33:24;;;;;;;1999.90;999.90;;;;;;;4.22;100.00;94346.91;5018404;28;20603;-65
2022/11/08 05:35:49;;;;;;;1999.90;999.90;;;;;;;4.22;100.00;94346.91;5018274;28;20202;-63
2022/11/08 05:38:15;;;;;;;1999.90;999.90;;;;;;;4.22;100.00;94346.91;5018268;28;20186;-63
2022/11/08 05:40:40;;;;;;;1999.90;999.90;;;;;;;4.22;100.00;94346.91;5018320;28;20206;-63
2022/11/08 05:43:06;;;;;;;1999.90;999.90;;;;;;;4.22;100.00;94346.91;5018438;28;20178;-64
2022/11/08 05:45:31;;;;;;;1999.90;999.90;;;;;;;4.22;100.00;94346.91;5018494;28;20171;-65
2022/11/08 05:48:02;;;;;;;1999.90;999.90;;;;;;;4.22;100.00;94346.91;5018063;28;20175;-58
2022/11/08 05:50:31;;;;;;;1999.90;999.90;;;;;;;4.22;100.00;94346.91;5017836;28;20182;-62
2022/11/08 05:52:57;;;;;;;1999.90;999.90;;;;;;;4.22;100.00;94346.91;5017809;28;20213;-62
2022/11/08 05:55:22;;;;;;;1999.90;999.90;;;;;;;4.22;100.00;94346.91;5017497;28;20202;-63
2022/11/08 05:57:47;;;;;;;1999.90;999.90;;;;;;;4.22;100.00;94346.91;5017765;28;20186;-61
2022/11/08 06:00:13;;;;;;;1999.90;999.90;;;;;;;4.22;100.00;94346.91;5018133;28;20202;-62
2022/11/08 06:02:39;;;;;;;1999.90;999.90;;;;;;;4.22;100.00;94346.91;5034269;28;20179;-62
2022/11/08 06:05:05;;;;;;;1999.90;999.90;;;;;;;4.22;100.00;94346.91;5017915;28;20190;-59
2022/11/08 06:07:30;;;;;;;1999.90;999.90;;;;;;;4.22;100.00;94346.91;5017479;28;20178;-59
2022/11/08 06:09:56;;;;;;;1999.90;999.90;;;;;;;4.22;100.00;94346.91;5017604;28;20240;-59
2022/11/08 06:12:21;;;;;;;1999.90;999.90;;;;;;;4.22;100.00;94346.91;5017560;28;20265;-59
2022/11/08 06:14:46;;;;;;;1999.90;999.90;;;;;;;4.22;100.00;94346.91;5017317;28;20181;-59
2022/11/08 06:17:12;;;;;;;1999.90;999.90;;;;;;;4.22;100.00;94346.91;5017837;28;20179;-59
2022/11/08 06:19:37;;;;;;;1999.90;999.90;;;;;;;4.22;100.00;94346.91;5017032;28;20234;-59
2022/11/08 06:22:02;;;;;;;1999.90;999.90;;;;;;;4.22;100.00;94346.91;5016991;28;20203;-61
2022/11/08 06:24:28;;;;;;;1999.90;999.90;;;;;;;4.22;100.00;94346.91;5017431;28;20178;-58
2022/11/08 06:26:53;;;;;;;1999.90;999.90;;;;;;;4.22;100.00;94346.91;5017246;28;20217;-59
2022/11/08 06:29:18;;;;;;;1999.90;999.90;;;;;;;4.22;100.00;94346.91;5017472;28;20175;-59
2022/11/08 06:31:44;;;;;;;1999.90;999.90;;;;;;;4.22;100.00;94346.91;5017062;28;20189;-61
2022/11/08 06:34:10;;;;;;;1999.90;999.90;;;;;;;4.22;100.00;94346.91;5017209;28;20208;-61
2022/11/08 06:36:35;;;;;;;1999.90;999.90;;;;;;;7.46;100.00;94604.84;5017388;28;20189;-61
2022/11/08 06:39:01;;;;;;;1999.90;999.90;;;;;;;7.70;100.00;94775.78;5017159;28;20250;-61
2022/11/08 06:41:28;;;;;;;1999.90;999.90;;;;;;;8.52;100.00;94883.53;5017065;28;20588;-60
2022/11/08 06:43:54;;;;;;;1999.90;999.90;;;;;;;9.32;100.00;95012.69;5016879;28;20220;-63
2022/11/08 06:46:19;;;;;;;1999.90;999.90;;;;;;;9.42;100.00;95101.75;5017087;28;20213;-59
2022/11/08 06:48:45;;;;;;;1999.90;999.90;;;;;;;9.65;100.00;95142.81;5017250;28;20179;-59
2022/11/08 06:51:10;;;;;;;1999.90;999.90;;;;;;;10.49;100.00;95167.72;5017566;28;20178;-60
2022/11/08 06:53:35;;;;;;;1999.90;999.90;;;;;;;11.14;100.00;95181.69;5017465;28;20634;-60
2022/11/08 06:56:01;;;;;;;1999.90;999.90;;;;;;;11.05;100.00;95194.31;5016907;28;20181;-60
2022/11/08 06:58:27;;;;;;;1999.90;999.90;;;;;;;11.29;100.00;95198.69;5017433;28;20210;-61
2022/11/08 07:00:53;;;;;;;1999.90;999.90;;;;;;;11.65;100.00;95210.69;5016931;28;20296;-60
2022/11/08 07:03:18;;;;;;;1999.90;999.90;;;;;;;12.22;100.00;95208.56;5016659;28;20579;-60
2022/11/08 07:05:44;;;;;;;1999.90;999.90;;;;;;;12.82;100.00;95219.19;5016953;28;20175;-63
2022/11/08 07:08:09;;;;;;;1999.90;999.90;;;;;;;13.28;100.00;95224.50;5016368;28;20252;-62
2022/11/08 07:10:35;;;;;;;1999.90;999.90;;;;;;;13.77;100.00;95225.38;5016871;28;20182;-60
2022/11/08 07:13:06;;;;;;;1999.90;999.90;;;;;;;13.97;100.00;95218.63;5016662;28;20182;-61
2022/11/08 07:15:33;;;;;;;1999.90;999.90;;;;;;;14.03;100.00;95219.66;5020072;28;20179;-61
2022/11/08 07:18:00;;;;;;;1999.90;999.90;;;;;;;14.36;100.00;95223.94;5020691;28;20189;-61
2022/11/08 07:20:25;;;;;;;1999.90;999.90;;;;;;;14.56;100.00;95238.34;5020592;28;20237;-60
2022/11/08 07:22:54;;;;;;;1999.90;999.90;;;;;;;14.40;100.00;95229.34;5020771;28;20189;-61
2022/11/08 07:25:20;;;;;;;1999.90;999.90;;;;;;;14.33;100.00;95222.06;5020934;28;20182;-60
2022/11/08 07:27:45;;;;;;;1999.90;999.90;;;;;;;14.11;100.00;95218.28;5021167;28;20171;-61
2022/11/08 07:30:11;;;;;;;1999.90;999.90;;;;;;;14.37;100.00;95227.44;5020375;28;20178;-61
2022/11/08 07:32:36;;;;;;;1999.90;999.90;;;;;;;14.24;100.00;95235.63;5020428;28;20178;-60
2022/11/08 07:35:01;;;;;;;1999.90;999.90;;;;;;;14.41;100.00;95237.16;5020477;28;20226;-60
2022/11/08 07:37:27;;;;;;;1999.90;999.90;;;;;;;14.88;100.00;95235.50;5020219;28;20265;-62
2022/11/08 07:39:52;;;;;;;1999.90;999.90;;;;;;;15.13;100.00;95221.06;5020160;28;20259;-63
2022/11/08 07:42:18;;;;;;;1999.90;999.90;;;;;;;14.98;100.00;95219.91;5020343;28;20232;-63
2022/11/08 07:44:43;;;;;;;1999.90;999.90;;;;;;;15.44;100.00;95222.16;5020973;28;20189;-63
2022/11/08 07:47:08;;;;;;;1999.90;999.90;;;;;;;15.78;100.00;95223.03;5020307;28;20269;-64
2022/11/08 07:49:34;;;;;;;1999.90;999.90;;;;;;;15.68;100.00;95215.91;5037421;28;20175;-64
2022/11/08 07:52:00;;;;;;;1999.90;999.90;;;;;;;16.20;100.00;95227.22;5020674;28;20175;-62
2022/11/08 07:54:26;;;;;;;1999.90;999.90;;;;;;;16.20;100.00;95221.69;5020602;28;20589;-65
2022/11/08 07:56:51;;;;;;;1999.90;999.90;;;;;;;15.93;100.00;95218.66;5020167;28;20198;-62
2022/11/08 07:59:16;;;;;;;1999.90;999.90;;;;;;;16.08;100.00;95214.22;5020042;28;20280;-61
2022/11/08 08:01:42;;;;;;;1999.90;999.90;;;;;;;15.85;100.00;95222.06;5020060;28;20228;-61
2022/11/08 08:04:08;;;;;;;1999.90;999.90;;;;;;;16.11;100.00;95218.09;5019813;28;20190;-61
2022/11/08 08:06:34;;;;;;;1999.90;999.90;;;;;;;15.71;100.00;95217.78;5020316;28;20174;-61
2022/11/08 08:08:59;;;;;;;1999.90;999.90;;;;;;;15.75;100.00;95215.69;5019867;28;20182;-61
2022/11/08 08:11:25;;;;;;;1999.90;999.90;;;;;;;16.23;100.00;95203.50;5020363;28;20575;-62
2022/11/08 08:13:50;;;;;;;1999.90;999.90;;;;;;;16.69;100.00;95204.72;5019864;28;20174;-60
2022/11/08 08:16:15;;;;;;;1999.90;999.90;;;;;;;17.09;100.00;95205.66;5019865;28;20183;-62
2022/11/08 08:18:41;;;;;;;1999.90;999.90;;;;;;;17.54;100.00;95201.22;5019845;28;20183;-61
2022/11/08 08:21:06;;;;;;;1999.90;999.90;;;;;;;17.18;100.00;95200.19;5019776;28;20683;-63
2022/11/08 08:23:31;;;;;;;1999.90;999.90;;;;;;;16.57;100.00;95202.81;5019957;28;20643;-62
2022/11/08 08:25:57;;;;;;;1999.90;999.90;;;;;;;16.68;100.00;95205.97;5018982;28;20174;-61
2022/11/08 08:28:22;;;;;;;1999.90;999.90;;;;;;;16.52;100.00;95204.13;5020069;28;20181;-61
2022/11/08 08:30:47;;;;;;;1999.90;999.90;;;;;;;16.87;100.00;95210.41;5019962;28;20197;-62
2022/11/08 08:33:15;;;;;;;1999.90;999.90;;;;;;;16.91;100.00;95208.28;5019492;28;20182;-63
2022/11/08 08:35:44;;;;;;;1999.90;999.90;;;;;;;17.37;100.00;95199.84;5019449;28;20179;-62
2022/11/08 08:38:11;;;;;;;1999.90;999.90;;;;;;;17.81;100.00;95204.09;5019119;28;20257;-62
2022/11/08 08:40:37;;;;;;;1999.90;999.90;;;;;;;17.81;98.87;95209.63;5019114;28;20303;-62
2022/11/08 08:43:04;;;;;;;1999.90;999.90;;;;;;;18.31;94.84;95208.41;5019173;28;20209;-62
2022/11/08 08:45:33;;;;;;;1999.90;999.90;;;;;;;17.67;95.75;95209.41;5018819;28;20179;-63
2022/11/08 08:47:59;;;;;;;1999.90;999.90;;;;;;;18.16;98.33;95213.75;5019862;28;20182;-63
2022/11/08 08:50:26;;;;;;;1999.90;999.90;;;;;;;18.61;94.04;95207.59;5018895;28;20182;-61
2022/11/08 08:52:56;;;;;;;1999.90;999.90;;;;;;;18.41;91.71;95205.25;5019554;28;20612;-64
2022/11/08 08:55:22;;;;;;;1999.90;999.90;;;;;;;19.05;89.88;95192.97;5019386;28;20225;-59
2022/11/08 08:57:47;;;;;;;1999.90;999.90;;;;;;;18.89;89.11;95200.81;5019254;28;20170;-60
2022/11/08 09:00:16;;;;;;;1999.90;999.90;;;;;;;18.55;88.03;95204.66;5019397;28;20608;-60
2022/11/08 09:02:42;;;;;;;1999.90;999.90;;;;;;;18.94;90.35;95203.75;5018845;28;20186;-59
2022/11/08 09:05:08;;;;;;;1999.90;999.90;;;;;;;19.59;84.33;95202.47;5018511;28;20208;-60
2022/11/08 09:07:34;;;;;;;1999.90;999.90;;;;;;;19.33;86.63;95199.28;5018747;28;20167;-60
2022/11/08 09:10:00;;;;;;;1999.90;999.90;;;;;;;19.59;84.71;95205.25;5018629;28;20170;-67
2022/11/08 09:12:26;;;;;;;1999.90;999.90;;;;;;;19.91;80.80;95205.28;5018828;28;20236;-66
2022/11/08 09:14:51;;;;;;;1999.90;999.90;;;;;;;20.31;80.36;95210.50;5018622;28;20196;-67
2022/11/08 09:17:17;;;;;;;1999.90;999.90;;;;;;;19.49;79.65;95208.00;5018877;28;20619;-66
2022/11/08 09:19:42;;;;;;;1999.90;999.90;;;;;;;18.48;89.35;95218.00;5018699;28;20587;-66
2022/11/08 09:22:07;;;;;;;1999.90;999.90;;;;;;;17.21;100.00;95213.09;5018526;28;20316;-66
2022/11/08 09:24:33;;;;;;;1999.90;999.90;;;;;;;16.79;100.00;95217.41;5018009;28;20167;-65
2022/11/08 09:27:02;;;;;;;1999.90;999.90;;;;;;;17.06;100.00;95217.59;5018992;28;20178;-61
2022/11/08 09:29:32;;;;;;;1999.90;999.90;;;;;;;16.69;100.00;95215.75;5019219;28;20254;-62
2022/11/08 09:31:58;;;;;;;1999.90;999.90;;;;;;;16.62;100.00;95207.72;5018766;28;20228;-64
2022/11/08 09:34:23;;;;;;;1999.90;999.90;;;;;;;16.62;100.00;95197.47;5018250;28;20179;-65
2022/11/08 09:36:48;;;;;;;1999.90;999.90;;;;;;;16.39;100.00;95195.84;5018085;28;20186;-65
2022/11/08 09:39:15;;;;;;;1999.90;999.90;;;;;;;16.15;100.00;95205.75;5018115;28;20182;-67
2022/11/08 09:41:55;;;;;;;1999.90;999.90;;;;;;;16.26;100.00;95211.66;5018164;28;20189;-65
2022/11/08 09:44:50;;;;;;;1999.90;999.90;;;;;;;16.95;100.00;95204.19;5018904;28;20225;-66
2022/11/08 09:47:22;;;;;;;1999.90;999.90;;;;;;;17.18;100.00;95211.22;5008856;28;20187;-66
2022/11/08 09:50:21;;;;;;;1999.90;999.90;;;;;;;17.62;100.00;95207.22;5018717;28;20190;-62
2022/11/08 09:53:13;;;;;;;1999.90;999.90;;;;;;;17.97;100.00;95211.38;5017844;28;20261;-63
2022/11/08 09:56:14;;;;;;;1999.90;999.90;;;;;;;17.47;100.00;95217.28;5017399;28;20240;-62
2022/11/08 09:58:49;;;;;;;1999.90;999.90;;;;;;;17.55;100.00;95207.53;5017467;28;20182;-62
2022/11/08 10:01:14;;;;;;;1999.90;999.90;;;;;;;17.25;100.00;95205.44;5018111;28;20248;-61
2022/11/08 10:03:46;;;;;;;1999.90;999.90;;;;;;;17.62;98.55;95202.47;5017638;28;20235;-61
2022/11/08 10:06:36;;;;;;;1999.90;999.90;;;;;;;18.45;92.47;95191.25;5018590;28;20167;-63
2022/11/08 10:09:24;;;;;;;1999.90;999.90;;;;;;;19.11;85.65;95187.59;5017954;28;20171;-64
2022/11/08 10:12:04;;;;;;;1999.90;999.90;;;;;;;19.71;77.61;95202.28;5016907;28;20197;-63
2022/11/08 10:14:45;;;;;;;1999.90;999.90;;;;;;;19.88;78.46;95189.56;5018323;28;20170;-64
2022/11/08 10:17:33;;;;;;;1999.90;999.90;;;;;;;20.59;77.79;95192.47;5017306;28;20175;-64
2022/11/08 10:20:07;;;;;;;1999.90;999.90;;;;;;;19.83;72.64;95193.00;5017510;28;20270;-64
2022/11/08 10:22:57;;;;;;;1999.90;999.90;;;;;;;18.69;80.37;95183.91;5018006;28;20194;-61
2022/11/08 10:25:29;;;;;;;1999.90;999.90;;;;;;;18.23;83.44;95185.03;5017958;28;20174;-61
2022/11/08 10:27:58;;;;;;;1999.90;999.90;;;;;;;17.91;87.14;95182.78;5018065;28;20182;-62
2022/11/08 10:30:31;;;;;;;1999.90;999.90;;;;;;;17.66;91.73;95188.56;5017705;28;20591;-61
2022/11/08 10:32:56;;;;;;;1999.90;999.90;;;;;;;17.31;94.87;95184.34;5017836;28;20531;-62
2022/11/08 10:35:43;;;;;;;1999.90;999.90;;;;;;;16.87;100.00;95188.34;5017217;28;20174;-62
2022/11/08 10:38:29;;;;;;;1999.90;999.90;;;;;;;16.66;100.00;95186.31;5016974;28;20178;-62
2022/11/08 10:41:29;;;;;;;1999.90;999.90;;;;;;;16.30;100.00;95173.75;5017188;28;20213;-65
2022/11/08 10:44:03;;;;;;;1999.90;999.90;;;;;;;16.14;100.00;95173.88;5012511;28;20183;-62
2022/11/08 10:46:49;;;;;;;1999.90;999.90;;;;;;;15.98;100.00;95168.50;5017697;28;20201;-64
2022/11/08 10:49:16;;;;;;;1999.90;999.90;;;;;;;15.82;100.00;95167.88;5016331;28;20269;-64
2022/11/08 10:51:44;;;;;;;1999.90;999.90;;;;;;;15.88;100.00;95153.09;5017662;28;20183;-62
2022/11/08 10:54:44;;;;;;;1999.90;999.90;;;;;;;15.94;100.00;95170.63;5017260;28;20180;-62
2022/11/08 10:57:12;;;;;;;1999.90;999.90;;;;;;;15.87;100.00;95165.34;5017275;28;20229;-65
2022/11/08 10:59:37;;;;;;;1999.90;999.90;;;;;;;15.90;100.00;95175.47;5016764;28;20304;-62
2022/11/08 11:02:25;;;;;;;1999.90;999.90;;;;;;;15.91;100.00;95174.25;5016944;28;20259;-61
2022/11/08 11:04:52;;;;;;;1999.90;999.90;;;;;;;15.74;100.00;95167.31;5016992;28;20287;-61
2022/11/08 11:07:35;;;;;;;1999.90;999.90;;;;;;;15.84;100.00;95162.69;5017475;28;20175;-60
2022/11/08 11:10:36;;;;;;;1999.90;999.90;;;;;;;15.84;100.00;95163.47;5017041;28;20182;-60
2022/11/08 11:13:03;;;;;;;1999.90;999.90;;;;;;;15.98;100.00;95154.75;5016506;28;20189;-59
2022/11/08 11:15:59;;;;;;;1999.90;999.90;;;;;;;16.11;100.00;95158.22;5016641;28;20174;-61